Meath Environmental Platform

Observations for Trim Patrick St

Time AQI Temp °C Hum % Pres Pa CO μg/m³ H₂S μg/m³ NO μg/m³ NO₂ μg/m³ O₃ μg/m³ SO₂ μg/m³ PM1 μg/m³ PM2.5 μg/m³ PM10 μg/m³
Saturday 1 August 2026
18:33 3 28.4 34 69,080 0 0 1.33 22.25 88.36 11.66 9.71 17.8 19.58
18:32 3 28.3 35 69,067 0 0.75 1.37 20.28 78.42 12.02 7.14 15.31 16.84
18:30 3 28 35 69,098 0 0 1.34 16.14 75.43 11.5 7.14 15.33 16.87
18:25 3 27.3 35 69,090 0 2.49 1.21 15.16 78.98 11.88 7.14 16.1 17.72
18:24 3 27.4 34 69,090 0 0 1.27 16.86 79.98 11.91 7.14 16.19 17.81
18:23 3 27.4 34 69,088 0 1.3 1.21 14.1 77.56 12.13 5.43 12.99 14.29
18:22 3 27.5 34 69,086 0 4.1 1.19 19.51 86.41 12.25 8 15.36 16.9
18:21 3 27.5 35 69,090 0 3.7 1.2 23.98 86.08 11.9 8.86 17.7 19.47
18:19 3 27.6 34 69,090 0 5.48 1.15 22.5 84.39 12.04 8.86 19.33 21.27
18:18 3 27.7 34 69,090 0 6.3 1.16 21.2 87.5 12.19 7.14 16.18 17.8
18:16 3 27.7 35 69,082 0 3.87 1.21 18.81 89.09 12.85 7.14 14.53 15.98
18:15 3 27.6 35 69,076 0 0.38 1.2 22.49 80.41 10.72 8 15.34 16.88
18:14 3 27.6 34 69,069 0 0 1.17 19.02 80.6 11.42 4.57 11.4 12.54
18:13 3 27.5 35 69,061 0 3.3 1.16 17.52 78.51 11.26 3.71 10.55 11.61
18:12 3 27.4 35 69,076 0 6.53 1.15 29.56 84.34 11.19 2.86 9.73 10.7
18:11 3 27.3 35 69,069 0 6.65 1.14 20.17 88.51 11.74 2.86 9.72 10.7
18:10 3 27.2 36 69,086 0 10.58 1.11 22.45 92.85 12.35 3.71 10.46 11.51
18:09 3 27.1 35 69,084 0 5.91 1.17 23.41 85.82 11.56 4.57 11.32 12.45
18:07 3 27 35 69,086 0 4.93 1.23 22.15 82.91 10.68 4.57 12.1 13.31
18:06 3 27 36 69,088 0 8.11 1.16 20.31 83.88 11.92 3.71 10.48 11.53